Weather reports worldwide

Advertisment
Lorca, Spain (8426): temperature & dewpoint: 14.01.2021 15:00:00 - 20.01.2021 15:00:00 (CET)Lorca, Spain (8426): wind speed & gusts: 14.01.2021 15:00:00 - 20.01.2021 15:00:00 (CET)Lorca, Spain (8426): wind direction: 14.01.2021 15:00:00 - 20.01.2021 15:00:00 (CET)Lorca, Spain (8426): precipitation: 14.01.2021 15:00:00 - 20.01.2021 15:00:00 (CET)
Date & Time tt [°C] td [°C] ff [km/h] ff [kn] fx [km/h] fx [kn] dd rr [mm]
20.01.2021 15:00:00 - - - - - - - -
20.01.2021 14:00:00 8,1 4,5 1 1 13 7 SW 0,0
20.01.2021 13:00:00 8,2 5,0 1 0 4 2 SSW -
20.01.2021 12:00:00 7,9 4,5 2 1 6 4 SW 0,0
20.01.2021 11:00:00 7,3 3,9 2 1 6 3 SSW 0,0
20.01.2021 10:00:00 5,9 3,2 1 0 6 4 SW 0,0
20.01.2021 09:00:00 4,6 0,9 5 3 9 5 SSW 0,0
20.01.2021 08:00:00 4,0 1,3 2 1 8 4 SSW 0,0
20.01.2021 07:00:00 4,8 3,0 2 1 16 9 SSW -
20.01.2021 06:00:00 4,2 1,9 5 3 14 8 SSW 0,0
20.01.2021 05:00:00 5,9 3,9 2 1 7 4 SSW 0,0
20.01.2021 04:00:00 6,0 3,9 3 2 10 5 SSW 0,0
20.01.2021 03:00:00 6,9 5,1 2 1 5 3 SSW 0,0
20.01.2021 02:00:00 7,6 6,1 4 2 10 5 SSW 0,0
20.01.2021 01:00:00 8,6 7,0 3 1 8 4 SW -
20.01.2021 00:00:00 8,8 7,1 2 1 7 4 WSW 0,0
19.01.2021 23:00:00 9,3 7,6 2 1 6 4 WSW 0,0
19.01.2021 22:00:00 9,5 7,8 2 1 10 6 SW 0,0
19.01.2021 21:00:00 9,4 7,7 3 2 9 5 SW 0,0
19.01.2021 20:00:00 9,1 7,3 4 2 8 4 SW 0,0
19.01.2021 19:00:00 9,7 7,1 3 2 11 6 SSW -
19.01.2021 18:00:00 11,5 7,0 4 2 17 9 SSW 0,0
19.01.2021 17:00:00 13,8 7,1 7 4 18 10 SSW 0,0
19.01.2021 16:00:00 15,0 6,8 8 4 17 9 SSW 0,0
19.01.2021 15:00:00 15,0 5,5 7 4 17 9 SSW 0,0
19.01.2021 14:00:00 14,7 5,8 6 4 16 9 SSW 0,0
19.01.2021 13:00:00 12,4 6,2 6 3 12 7 SW -
19.01.2021 12:00:00 10,4 7,4 3 2 6 3 SW 0,0
19.01.2021 11:00:00 6,9 4,3 1 1 4 2 WSW 0,0
19.01.2021 10:00:00 3,4 2,3 0 0 4 2 SW 0,0
19.01.2021 09:00:00 1,3 0,6 0 0 2 1 N 0,0
19.01.2021 08:00:00 0,8 -0,3 0 0 3 1 N 0,0
19.01.2021 07:00:00 1,1 0,2 0 0 3 1 SSW -
19.01.2021 06:00:00 1,7 0,6 1 1 3 2 WSW 0,0
19.01.2021 05:00:00 2,2 1,1 1 0 7 4 SW 0,0
19.01.2021 04:00:00 3,1 1,5 3 1 9 5 SSW 0,0
19.01.2021 03:00:00 2,7 1,3 0 0 1 1 N 0,0
19.01.2021 02:00:00 3,6 2,3 0 0 4 2 N 0,0
19.01.2021 01:00:00 4,8 3,0 2 1 13 7 SW -
19.01.2021 00:00:00 5,1 3,2 3 2 11 6 SSW 0,0
18.01.2021 23:00:00 5,0 3,4 1 1 4 2 WSW 0,0
18.01.2021 22:00:00 5,7 3,6 1 0 4 2 WSW 0,0
18.01.2021 21:00:00 7,8 4,6 0 0 6 3 SW 0,0
18.01.2021 20:00:00 9,5 5,8 4 2 9 5 SW 0,0
18.01.2021 19:00:00 10,5 5,5 4 2 10 6 SW -
18.01.2021 18:00:00 12,9 4,8 5 3 16 9 SSW 0,0
18.01.2021 17:00:00 15,8 5,6 8 4 15 8 SSW 0,0
18.01.2021 16:00:00 17,1 4,5 6 3 12 6 SSW 0,0
18.01.2021 15:00:00 17,4 3,9 3 2 11 6 SSW 0,0
18.01.2021 14:00:00 16,7 3,8 4 2 10 5 SSW 0,0
18.01.2021 13:00:00 14,4 2,9 3 2 9 5 SW -
18.01.2021 12:00:00 12,7 1,9 4 2 12 6 SSW 0,0
18.01.2021 11:00:00 8,6 1,1 6 3 13 7 SSW 0,0
18.01.2021 10:00:00 6,1 -0,3 8 4 15 8 SSW 0,0
18.01.2021 09:00:00 2,2 -1,7 0 0 4 2 SW 0,0
18.01.2021 08:00:00 2,4 -2,0 2 1 6 3 WSW 0,0
18.01.2021 07:00:00 3,1 -1,4 4 2 7 4 SSW -
18.01.2021 06:00:00 3,1 -1,4 2 1 8 4 WSW 0,0
18.01.2021 05:00:00 3,2 -1,4 3 2 9 5 WSW 0,0
18.01.2021 04:00:00 4,1 -1,0 3 1 9 5 WSW 0,0
18.01.2021 03:00:00 4,3 -0,5 4 2 9 5 SW 0,0
18.01.2021 02:00:00 4,9 0,0 2 1 8 5 SW 0,0
18.01.2021 01:00:00 7,5 -0,3 6 3 21 11 SSW -
18.01.2021 00:00:00 9,0 0,0 8 4 18 10 SSW 0,0
17.01.2021 23:00:00 8,2 0,6 1 0 14 8 SW 0,0
17.01.2021 22:00:00 8,5 2,1 4 2 9 5 WSW 0,0
17.01.2021 21:00:00 8,3 1,3 0 0 11 6 WSW 0,0
17.01.2021 20:00:00 9,0 1,7 1 1 4 2 S 0,0
17.01.2021 19:00:00 11,3 2,1 3 1 5 3 WSW -
17.01.2021 18:00:00 14,6 1,5 3 2 10 5 WSW 0,0
17.01.2021 17:00:00 18,5 0,6 4 2 12 6 SSW 0,0
17.01.2021 16:00:00 19,9 -0,3 5 3 12 7 SSW 0,0
17.01.2021 15:00:00 20,4 0,2 3 2 10 5 SSW 0,0
17.01.2021 14:00:00 18,8 -0,7 5 3 9 5 S 0,0
17.01.2021 13:00:00 17,1 -0,7 4 2 10 5 SSW -
17.01.2021 12:00:00 13,9 0,2 2 1 7 4 SW 0,0
17.01.2021 11:00:00 10,0 1,3 1 1 10 6 SW 0,0
17.01.2021 10:00:00 3,8 1,3 2 1 6 3 SSW 0,0
17.01.2021 09:00:00 0,5 -0,7 1 1 7 4 WSW 0,0
17.01.2021 08:00:00 0,2 -1,4 1 1 5 3 SSW 0,0
17.01.2021 07:00:00 0,5 -0,7 1 1 5 3 WSW -
17.01.2021 06:00:00 0,6 -0,7 0 0 6 3 SW 0,0
17.01.2021 05:00:00 0,7 -0,7 0 0 5 3 SW 0,0
17.01.2021 04:00:00 1,4 -0,3 3 2 6 3 SSW 0,0
17.01.2021 03:00:00 1,7 -0,5 2 1 6 3 SW 0,0
17.01.2021 02:00:00 2,1 0,4 2 1 5 3 SW 0,0
17.01.2021 01:00:00 2,6 0,0 0 0 6 3 SSW -
17.01.2021 00:00:00 3,7 0,2 3 2 7 4 SSW 0,0
16.01.2021 23:00:00 4,3 0,2 0 0 7 4 S 0,0
16.01.2021 22:00:00 5,0 2,5 1 0 3 2 SSW 0,0
16.01.2021 21:00:00 6,3 2,7 0 0 8 4 SW 0,0
16.01.2021 20:00:00 8,0 3,8 5 3 8 4 SW 0,0
16.01.2021 19:00:00 9,4 3,4 3 2 7 4 WSW -
16.01.2021 18:00:00 11,6 2,9 3 1 13 7 SSW 0,0
16.01.2021 17:00:00 14,6 0,9 1 1 7 4 WSW 0,0
16.01.2021 16:00:00 15,1 0,4 2 1 13 7 SW 0,0
16.01.2021 15:00:00 13,8 -0,3 5 3 12 7 SW 0,0
16.01.2021 14:00:00 14,0 0,6 4 2 17 9 WSW 0,0
16.01.2021 13:00:00 13,0 0,4 5 3 19 11 WSW -
16.01.2021 12:00:00 11,5 -0,7 8 5 18 10 SW 0,0
16.01.2021 11:00:00 10,4 0,2 4 2 23 12 WSW 0,0
16.01.2021 10:00:00 9,0 -2,0 12 6 23 12 SSW 0,0
16.01.2021 09:00:00 6,5 -2,7 8 4 16 9 SSW 0,0
16.01.2021 08:00:00 4,4 -4,2 2 1 13 7 SW 0,0
16.01.2021 07:00:00 4,4 -4,2 1 1 8 4 SSW -
16.01.2021 06:00:00 6,8 -3,6 4 2 11 6 SSW 0,0
16.01.2021 05:00:00 6,5 -3,6 1 1 11 6 WSW 0,0
16.01.2021 04:00:00 8,3 -2,5 3 2 14 8 SSW 0,0
16.01.2021 03:00:00 8,4 -2,2 5 3 15 8 SSW 0,0
16.01.2021 02:00:00 8,9 -1,4 5 3 15 8 SSW 0,0
16.01.2021 01:00:00 6,0 -1,7 3 2 15 8 WSW -
16.01.2021 00:00:00 8,4 -1,0 4 2 15 8 SSW 0,0
15.01.2021 23:00:00 8,5 -0,5 5 3 15 8 SSW 0,0
15.01.2021 22:00:00 9,5 0,4 5 3 21 11 SSW 0,0
15.01.2021 21:00:00 10,3 0,9 8 5 20 11 SSW 0,0
15.01.2021 20:00:00 10,7 1,3 4 2 14 8 SW 0,0
15.01.2021 19:00:00 10,7 3,4 3 1 6 3 SW -
15.01.2021 18:00:00 14,1 2,7 3 2 12 6 SW 0,0
15.01.2021 17:00:00 17,4 2,1 0 0 6 4 SW 0,0
15.01.2021 16:00:00 17,4 2,1 3 2 13 7 WSW 0,0
15.01.2021 15:00:00 17,4 0,9 6 4 18 10 SW 0,0
15.01.2021 14:00:00 17,3 -1,0 6 4 17 9 SSW 0,0
15.01.2021 13:00:00 15,9 -0,5 8 4 19 10 SW -
15.01.2021 12:00:00 13,8 -0,7 11 6 23 13 SSW 0,0
15.01.2021 11:00:00 11,3 -1,0 11 6 23 12 SW 0,0
15.01.2021 10:00:00 7,5 -1,4 4 2 9 5 SSW 0,0
15.01.2021 09:00:00 6,0 -2,7 5 3 23 12 SSW 0,0
15.01.2021 08:00:00 6,9 -2,2 8 4 21 11 SSW 0,0
15.01.2021 07:00:00 7,3 -2,2 10 5 20 11 SSW -
15.01.2021 06:00:00 7,9 -2,5 10 5 21 11 SW 0,0
15.01.2021 05:00:00 8,4 -2,2 8 5 22 12 SW 0,0
15.01.2021 04:00:00 8,5 -2,0 12 6 26 14 SW 0,0
15.01.2021 03:00:00 8,8 -1,7 14 7 24 13 SW 0,0
15.01.2021 02:00:00 8,2 -1,2 11 6 29 15 SW 0,0
15.01.2021 01:00:00 4,4 -1,4 1 1 12 7 SW -
15.01.2021 00:00:00 7,1 -1,2 8 5 13 7 SW 0,0
14.01.2021 23:00:00 7,5 -1,0 6 4 10 6 SW 0,0
14.01.2021 22:00:00 8,3 -0,5 5 3 11 6 SSW 0,0
14.01.2021 21:00:00 9,2 0,2 3 2 15 8 SSW 0,0
14.01.2021 20:00:00 8,9 1,3 3 1 9 5 SSW 0,0
14.01.2021 19:00:00 9,6 3,6 0 0 5 3 N -
14.01.2021 18:00:00 13,1 3,2 2 1 8 5 SSW 0,0
14.01.2021 17:00:00 16,2 2,3 5 3 11 6 S 0,0
14.01.2021 16:00:00 17,6 -0,3 5 3 13 7 SSW 0,0
14.01.2021 15:00:00 16,7 0,4 5 3 12 7 SSW 0,0

tt = temperature
td = dewpoint
ff = wind speed
fx = gusts
dd = wind direction
rr = precipitation

Next stations